createdAt,value
2022-10-25T00:00:47.837Z,6.33
2022-10-25T00:03:49.493Z,5.97
2022-10-25T00:06:51.039Z,6.27
2022-10-25T00:09:52.704Z,6.43
2022-10-25T00:12:54.510Z,6.30
2022-10-25T00:15:56.123Z,6.03
2022-10-25T00:18:57.660Z,5.57
2022-10-25T00:21:59.312Z,5.80
2022-10-25T00:25:00.910Z,5.80
2022-10-25T00:28:02.433Z,5.83
2022-10-25T00:31:05.608Z,6.13
2022-10-25T00:34:07.259Z,6.33
2022-10-25T00:37:08.860Z,6.33
2022-10-25T00:40:10.793Z,5.77
2022-10-25T00:43:29.281Z,6.43
2022-10-25T00:46:31.936Z,6.37
2022-10-25T00:49:34.174Z,6.67
2022-10-25T00:52:36.861Z,6.57
2022-10-25T00:55:40.626Z,7.00
2022-10-25T00:58:45.065Z,7.30
2022-10-25T01:01:47.151Z,7.10
2022-10-25T01:04:49.554Z,7.27
2022-10-25T01:07:51.285Z,7.20
2022-10-25T01:10:52.848Z,7.33
2022-10-25T01:13:54.614Z,6.73
2022-10-25T01:16:56.203Z,6.50
2022-10-25T01:20:24.641Z,7.13
2022-10-25T01:23:44.649Z,6.63
2022-10-25T01:26:46.273Z,6.27
2022-10-25T01:30:06.497Z,6.90
2022-10-25T01:33:22.729Z,7.33
2022-10-25T01:36:44.522Z,6.40
2022-10-25T01:39:53.512Z,6.90
2022-10-25T01:43:13.233Z,6.40
2022-10-25T01:46:17.702Z,6.53
2022-10-25T01:49:31.362Z,6.50
2022-10-25T01:52:32.975Z,6.93
2022-10-25T01:55:37.132Z,7.03
2022-10-25T01:58:44.738Z,6.30
2022-10-25T02:01:52.227Z,6.00
2022-10-25T02:05:01.361Z,5.90
2022-10-25T02:08:21.987Z,6.03
2022-10-25T02:11:24.551Z,6.07
2022-10-25T02:14:37.511Z,6.27
2022-10-25T02:17:43.208Z,5.50
2022-10-25T02:20:46.822Z,5.73
2022-10-25T02:23:49.116Z,6.70
2022-10-25T02:26:51.396Z,5.83
2022-10-25T02:29:53.589Z,6.13
2022-10-25T02:32:55.129Z,6.40
2022-10-25T02:36:07.265Z,5.63
2022-10-25T02:39:08.891Z,6.27
2022-10-25T02:42:10.435Z,6.00
2022-10-25T02:45:12.038Z,6.00
2022-10-25T02:48:13.573Z,5.63
2022-10-25T02:51:15.865Z,6.07
2022-10-25T02:54:17.398Z,6.40
2022-10-25T02:57:18.926Z,5.87
2022-10-25T03:00:20.601Z,6.33
2022-10-25T03:03:22.160Z,7.13
2022-10-25T03:06:23.807Z,6.50
2022-10-25T03:09:25.424Z,6.07
2022-10-25T03:12:27.021Z,6.57
2022-10-25T03:15:28.644Z,6.23
2022-10-25T03:18:30.382Z,6.53
2022-10-25T03:21:32.239Z,6.40
2022-10-25T03:24:33.775Z,6.87
2022-10-25T03:27:35.367Z,7.53
2022-10-25T03:30:36.921Z,6.33
2022-10-25T03:33:39.729Z,6.37
2022-10-25T03:36:41.300Z,6.00
2022-10-25T03:39:42.857Z,6.90
2022-10-25T03:42:44.818Z,6.50
2022-10-25T03:45:46.368Z,6.70
2022-10-25T03:48:47.973Z,6.33
2022-10-25T03:51:52.348Z,6.13
2022-10-25T03:54:57.581Z,6.80
2022-10-25T03:57:59.185Z,6.40
2022-10-25T04:01:01.201Z,6.63
2022-10-25T04:04:02.966Z,6.33
2022-10-25T04:07:04.578Z,6.50
2022-10-25T04:10:06.375Z,6.13
2022-10-25T04:13:08.022Z,5.80
2022-10-25T04:16:09.568Z,5.90
2022-10-25T04:19:11.210Z,6.90
2022-10-25T04:22:13.088Z,6.70
2022-10-25T04:25:14.707Z,8.73
2022-10-25T04:28:16.313Z,7.17
2022-10-25T04:31:18.227Z,6.90
2022-10-25T04:34:19.929Z,5.77
2022-10-25T04:37:21.541Z,6.00
2022-10-25T04:40:24.929Z,6.97
2022-10-25T04:43:27.661Z,6.87
2022-10-25T04:46:29.245Z,8.00
2022-10-25T04:49:30.813Z,6.67
2022-10-25T04:52:32.688Z,6.90
2022-10-25T04:55:34.332Z,7.00
2022-10-25T04:58:36.423Z,6.97
2022-10-25T05:01:38.266Z,6.20
2022-10-25T05:04:39.867Z,6.50
2022-10-25T05:07:41.402Z,6.90
2022-10-25T05:10:43.076Z,7.50
2022-10-25T05:13:47.694Z,7.20
2022-10-25T05:16:49.265Z,7.87
2022-10-25T05:19:50.897Z,7.90
2022-10-25T05:22:52.481Z,8.87
2022-10-25T05:26:04.260Z,10.10
2022-10-25T05:29:10.143Z,9.83
2022-10-25T05:32:12.007Z,9.63
2022-10-25T05:35:13.544Z,8.97
2022-10-25T05:38:15.213Z,8.30
2022-10-25T05:41:17.917Z,9.17
2022-10-25T05:44:19.550Z,8.23
2022-10-25T05:47:21.098Z,8.80
2022-10-25T05:50:22.798Z,10.63
2022-10-25T05:53:24.398Z,10.17
2022-10-25T05:56:27.392Z,9.80
2022-10-25T05:59:29.010Z,9.97
2022-10-25T06:02:31.245Z,10.53
2022-10-25T06:05:33.014Z,9.37
2022-10-25T06:08:35.071Z,9.50
2022-10-25T06:11:37.244Z,9.07
2022-10-25T06:14:38.847Z,8.70
2022-10-25T06:17:40.370Z,8.97
2022-10-25T06:23:48.864Z,7.27
2022-10-25T06:26:50.427Z,6.40
2022-10-25T06:29:51.988Z,7.00
2022-10-25T06:32:54.684Z,8.43
2022-10-25T06:35:57.053Z,6.83
2022-10-25T06:39:03.774Z,8.13
2022-10-25T06:42:08.354Z,9.30
2022-10-25T06:45:10.244Z,9.73
2022-10-25T06:48:11.844Z,9.57
2022-10-25T06:51:14.608Z,9.07
2022-10-25T06:54:16.302Z,9.13
2022-10-25T06:57:17.965Z,8.30
2022-10-25T07:00:19.705Z,8.37
2022-10-25T07:03:29.857Z,8.87
2022-10-25T07:06:37.995Z,8.30
2022-10-25T07:09:39.651Z,9.13
2022-10-25T07:12:41.311Z,9.80
2022-10-25T07:15:42.949Z,10.27
2022-10-25T07:18:44.795Z,9.83
2022-10-25T07:21:46.365Z,15.30
2022-10-25T07:24:47.926Z,31.43
2022-10-25T07:27:49.705Z,19.00
2022-10-25T07:30:51.672Z,12.23
2022-10-25T07:33:54.072Z,10.63
2022-10-25T07:36:55.689Z,8.40
2022-10-25T07:39:57.368Z,8.53
2022-10-25T07:42:58.994Z,11.07
2022-10-25T07:46:00.833Z,10.63
2022-10-25T07:49:02.508Z,9.57
2022-10-25T07:52:04.145Z,9.27
2022-10-25T07:55:05.972Z,10.03
2022-10-25T07:58:08.324Z,10.13
2022-10-25T08:01:10.815Z,11.17
2022-10-25T08:04:12.425Z,10.30
2022-10-25T08:07:14.024Z,9.63
2022-10-25T08:10:15.667Z,9.90
2022-10-25T08:13:17.341Z,8.63
2022-10-25T08:16:19.026Z,8.30
2022-10-25T08:19:20.591Z,7.60
2022-10-25T08:22:22.201Z,7.45
2022-10-25T08:25:26.257Z,6.63
2022-10-25T08:28:30.792Z,6.68
2022-10-25T08:31:32.376Z,6.38
2022-10-25T08:34:34.128Z,6.43
2022-10-25T08:37:35.738Z,6.55
2022-10-25T08:40:45.215Z,8.50
2022-10-25T08:47:23.256Z,10.30
2022-10-25T08:50:45.084Z,9.57
2022-10-25T08:53:49.851Z,7.47
2022-10-25T08:57:10.693Z,7.95
2022-10-25T09:00:20.575Z,8.82
2022-10-25T09:03:26.409Z,6.93
2022-10-25T09:06:46.699Z,8.38
2022-10-25T09:10:02.088Z,7.18
2022-10-25T09:13:09.793Z,7.90
2022-10-25T09:16:16.869Z,7.18
2022-10-25T09:19:21.227Z,15.63
2022-10-25T09:22:27.519Z,7.78
2022-10-25T09:25:29.186Z,7.80
2022-10-25T09:28:36.595Z,9.75
2022-10-25T09:31:41.043Z,9.02
2022-10-25T09:34:43.012Z,6.70
2022-10-25T09:37:48.715Z,6.57
2022-10-25T09:40:57.008Z,6.25
2022-10-25T09:44:04.507Z,6.47
2022-10-25T09:47:18.574Z,6.60
2022-10-25T09:50:20.243Z,4.93
2022-10-25T09:53:24.067Z,5.63
2022-10-25T09:56:25.933Z,6.57
2022-10-25T09:59:28.174Z,6.60
2022-10-25T10:02:29.814Z,6.20
2022-10-25T10:05:32.036Z,5.83
2022-10-25T10:08:35.130Z,5.87
2022-10-25T10:11:36.741Z,6.13
2022-10-25T10:14:40.500Z,4.67
2022-10-25T10:17:42.138Z,5.43
2022-10-25T10:20:55.878Z,5.80
2022-10-25T10:24:05.431Z,5.23
2022-10-25T10:27:09.048Z,5.90
2022-10-25T10:30:20.669Z,5.80
2022-10-25T10:33:22.611Z,5.80
2022-10-25T10:36:24.290Z,5.13
2022-10-25T10:39:25.999Z,5.67
2022-10-25T10:42:34.185Z,5.10
2022-10-25T10:45:35.925Z,5.17
2022-10-25T10:48:43.263Z,5.83
2022-10-25T10:51:45.699Z,4.87
2022-10-25T10:54:47.955Z,5.13
2022-10-25T10:57:52.018Z,5.80
2022-10-25T11:00:58.958Z,5.30
2022-10-25T11:04:01.303Z,5.90
2022-10-25T11:07:38.190Z,5.07
2022-10-25T11:10:40.293Z,5.67
2022-10-25T11:13:50.041Z,5.30
2022-10-25T11:17:07.037Z,5.53
2022-10-25T11:20:35.683Z,4.97
2022-10-25T11:23:52.418Z,5.83
2022-10-25T11:27:12.159Z,5.03
2022-10-25T11:30:23.832Z,4.70
2022-10-25T11:33:37.726Z,5.57
2022-10-25T11:36:45.117Z,5.47
2022-10-25T11:39:52.491Z,5.37
2022-10-25T11:42:54.073Z,5.80
2022-10-25T11:45:59.724Z,5.33
2022-10-25T11:49:07.539Z,5.90
2022-10-25T11:52:11.958Z,6.23
2022-10-25T11:55:26.017Z,5.20
2022-10-25T11:58:54.081Z,5.93
2022-10-25T12:02:14.376Z,5.43
2022-10-25T12:05:27.956Z,5.40
2022-10-25T12:09:05.102Z,5.93
2022-10-25T12:12:09.794Z,6.10
2022-10-25T12:15:15.447Z,5.77
2022-10-25T12:18:26.114Z,5.40
2022-10-25T12:21:30.997Z,5.70
2022-10-25T12:24:49.685Z,5.33
2022-10-25T12:27:56.818Z,5.63
2022-10-25T12:31:07.009Z,5.40
2022-10-25T12:34:11.588Z,5.20
2022-10-25T12:37:21.698Z,5.30
2022-10-25T12:43:37.575Z,5.13
2022-10-25T12:46:45.132Z,5.70
2022-10-25T12:49:57.872Z,5.70
2022-10-25T12:53:17.923Z,5.43
2022-10-25T12:56:25.310Z,4.90
2022-10-25T12:59:26.883Z,5.07
2022-10-25T13:02:47.068Z,5.27
2022-10-25T13:05:49.314Z,4.73
2022-10-25T13:08:50.943Z,5.07
2022-10-25T13:11:59.631Z,5.30
2022-10-25T13:15:02.386Z,4.70
2022-10-25T13:18:07.012Z,5.07
2022-10-25T13:21:10.474Z,5.30
2022-10-25T13:24:32.059Z,5.87
2022-10-25T13:27:34.331Z,5.80
2022-10-25T13:30:35.919Z,5.03
2022-10-25T13:33:37.568Z,4.97
2022-10-25T13:36:51.695Z,4.77
2022-10-25T13:39:54.376Z,4.73
2022-10-25T13:43:19.525Z,5.40
2022-10-25T13:46:24.188Z,5.57
2022-10-25T13:49:25.767Z,6.57
2022-10-25T13:52:30.699Z,6.50
2022-10-25T13:55:36.813Z,5.50
2022-10-25T13:58:43.274Z,5.37
2022-10-25T14:01:44.878Z,5.87
2022-10-25T14:04:46.657Z,5.90
2022-10-25T14:07:48.686Z,6.70
2022-10-25T14:10:50.806Z,5.80
2022-10-25T14:13:58.351Z,6.33
2022-10-25T14:17:03.082Z,6.47
2022-10-25T14:20:21.108Z,6.50
2022-10-25T14:23:24.212Z,9.93
2022-10-25T14:26:25.808Z,7.57
2022-10-25T14:29:28.599Z,6.80
2022-10-25T14:32:30.157Z,6.17
2022-10-25T14:35:33.820Z,6.40
2022-10-25T14:38:37.354Z,10.87
2022-10-25T14:41:39.141Z,8.27
2022-10-25T14:44:45.785Z,15.17
2022-10-25T14:47:47.365Z,12.43
2022-10-25T14:50:49.233Z,8.73
2022-10-25T14:53:50.830Z,7.57
2022-10-25T14:56:57.312Z,6.63
2022-10-25T15:00:01.394Z,7.90
2022-10-25T15:03:04.500Z,6.50
2022-10-25T15:06:06.217Z,8.23
2022-10-25T15:09:41.852Z,9.03
2022-10-25T15:12:39.535Z,8.33
2022-10-25T15:15:44.653Z,7.83
2022-10-25T15:19:02.148Z,9.50
2022-10-25T15:22:10.609Z,9.67
2022-10-25T15:25:21.425Z,8.60
2022-10-25T15:28:23.325Z,8.70
2022-10-25T15:31:26.228Z,13.10
2022-10-25T15:34:28.016Z,11.90
2022-10-25T15:37:29.630Z,9.77
2022-10-25T15:40:31.237Z,10.30
2022-10-25T15:43:32.781Z,9.50
2022-10-25T15:46:34.788Z,10.70
2022-10-25T15:49:39.125Z,10.07
2022-10-25T15:52:43.337Z,10.53
2022-10-25T15:55:45.104Z,11.17
2022-10-25T15:58:47.097Z,13.87
2022-10-25T16:01:51.513Z,13.67
2022-10-25T16:04:53.284Z,11.90
2022-10-25T16:07:55.865Z,12.03
2022-10-25T16:10:58.359Z,11.70
2022-10-25T16:14:00.131Z,12.67
2022-10-25T16:17:01.811Z,16.07
2022-10-25T16:20:03.485Z,18.97
2022-10-25T16:23:05.136Z,12.60
2022-10-25T16:26:06.721Z,10.63
2022-10-25T16:29:29.617Z,9.40
2022-10-25T16:32:31.143Z,12.90
2022-10-25T16:35:32.804Z,14.90
2022-10-25T16:38:34.384Z,14.50
2022-10-25T16:41:37.177Z,15.43
2022-10-25T16:44:38.802Z,14.63
2022-10-25T16:47:40.525Z,15.93
2022-10-25T16:50:42.155Z,16.37
2022-10-25T16:53:44.181Z,15.30
2022-10-25T16:56:45.769Z,16.43
2022-10-25T16:59:47.445Z,17.87
2022-10-25T17:02:49.294Z,18.77
2022-10-25T17:05:52.446Z,19.07
2022-10-25T17:08:54.302Z,19.50
2022-10-25T17:11:55.893Z,19.13
2022-10-25T17:14:57.454Z,16.73
2022-10-25T17:17:59.185Z,17.63
2022-10-25T17:21:04.927Z,14.23
2022-10-25T17:24:08.505Z,14.90
2022-10-25T17:27:10.263Z,14.20
2022-10-25T17:30:12.031Z,15.10
2022-10-25T17:33:13.583Z,15.63
2022-10-25T17:36:16.548Z,10.93
2022-10-25T17:39:18.385Z,11.43
2022-10-25T17:42:20.305Z,12.20
2022-10-25T17:45:22.050Z,13.10
2022-10-25T17:48:23.704Z,9.10
2022-10-25T17:51:25.580Z,11.57
2022-10-25T17:54:27.176Z,13.73
2022-10-25T17:57:29.022Z,11.90
2022-10-25T18:00:30.642Z,13.57
2022-10-25T18:03:33.813Z,11.20
2022-10-25T18:06:35.441Z,11.37
2022-10-25T18:09:38.687Z,10.37
2022-10-25T18:12:40.275Z,9.60
2022-10-25T18:15:41.971Z,9.17
2022-10-25T18:18:43.590Z,11.17
2022-10-25T18:21:45.342Z,9.63
2022-10-25T18:24:48.365Z,8.30
2022-10-25T18:27:50.285Z,9.73
2022-10-25T18:30:52.343Z,9.47
2022-10-25T18:33:55.468Z,9.70
2022-10-25T18:36:57.111Z,9.73
2022-10-25T18:39:58.774Z,9.03
2022-10-25T18:43:00.474Z,10.97
2022-10-25T18:46:02.872Z,10.20
2022-10-25T18:49:04.545Z,9.60
2022-10-25T18:52:07.545Z,10.77
2022-10-25T18:55:11.489Z,14.37
2022-10-25T18:58:15.999Z,12.37
2022-10-25T19:01:20.535Z,12.20
2022-10-25T19:04:23.606Z,10.67
2022-10-25T19:07:25.511Z,10.60
2022-10-25T19:10:27.182Z,8.80
2022-10-25T19:13:28.797Z,8.47
2022-10-25T19:16:30.384Z,9.53
2022-10-25T19:19:32.048Z,10.10
2022-10-25T19:22:33.847Z,9.50
2022-10-25T19:25:35.900Z,8.93
2022-10-25T19:28:37.707Z,10.30
2022-10-25T19:31:39.362Z,9.73
2022-10-25T19:34:41.014Z,9.97
2022-10-25T19:37:42.689Z,9.07
2022-10-25T19:40:45.399Z,9.30
2022-10-25T19:43:47.237Z,9.10
2022-10-25T19:46:49.453Z,7.43
2022-10-25T19:49:51.074Z,7.20
2022-10-25T19:52:52.670Z,7.70
2022-10-25T19:56:00.951Z,7.47
2022-10-25T19:59:03.514Z,6.67
2022-10-25T20:02:05.230Z,8.70
2022-10-25T20:05:07.052Z,8.93
2022-10-25T20:08:08.663Z,7.97
2022-10-25T20:11:11.425Z,7.83
2022-10-25T20:14:13.015Z,8.47
2022-10-25T20:17:15.488Z,10.67
2022-10-25T20:20:17.054Z,9.23
2022-10-25T20:23:18.641Z,9.40
2022-10-25T20:26:21.428Z,9.67
2022-10-25T20:29:23.809Z,9.63
2022-10-25T20:32:25.398Z,10.07
2022-10-25T20:35:27.207Z,7.63
2022-10-25T20:38:29.062Z,7.57
2022-10-25T20:41:31.109Z,7.30
2022-10-25T20:44:32.722Z,7.40
2022-10-25T20:47:34.255Z,7.57
2022-10-25T20:50:35.822Z,8.40
2022-10-25T20:53:38.500Z,9.77
2022-10-25T20:56:40.129Z,10.20
2022-10-25T20:59:41.673Z,12.00
2022-10-25T21:02:43.939Z,9.57
2022-10-25T21:05:45.471Z,8.43
2022-10-25T21:08:47.105Z,8.27
2022-10-25T21:11:48.707Z,8.33
2022-10-25T21:14:50.295Z,8.27
2022-10-25T21:17:52.005Z,7.53
2022-10-25T21:20:53.668Z,8.93
2022-10-25T21:23:56.185Z,9.93
2022-10-25T21:26:57.763Z,8.67
2022-10-25T21:29:59.295Z,8.90
2022-10-25T21:33:02.273Z,7.70
2022-10-25T21:36:04.992Z,8.50
2022-10-25T21:39:06.518Z,8.63
2022-10-25T21:42:08.162Z,8.50
2022-10-25T21:45:09.953Z,9.03
2022-10-25T21:48:11.722Z,8.93
2022-10-25T21:51:13.632Z,9.43
2022-10-25T21:54:15.224Z,8.37
2022-10-25T21:57:16.769Z,9.13
2022-10-25T22:00:18.440Z,9.20
2022-10-25T22:03:22.012Z,8.97
2022-10-25T22:06:27.187Z,9.47
2022-10-25T22:09:28.806Z,8.83
2022-10-25T22:12:30.416Z,8.97
2022-10-25T22:15:31.964Z,10.17
2022-10-25T22:18:33.746Z,9.97
2022-10-25T22:21:36.614Z,9.87
2022-10-25T22:24:38.230Z,9.67
2022-10-25T22:27:39.908Z,9.10
2022-10-25T22:30:41.587Z,9.57
2022-10-25T22:33:43.804Z,9.37
2022-10-25T22:36:45.497Z,9.87
2022-10-25T22:39:47.121Z,9.83
2022-10-25T22:42:48.736Z,8.73
2022-10-25T22:45:50.312Z,9.63
2022-10-25T22:48:53.057Z,8.27
2022-10-25T22:51:54.638Z,8.60
2022-10-25T22:54:56.209Z,9.13
2022-10-25T22:57:57.750Z,9.03
2022-10-25T23:01:00.502Z,9.03
2022-10-25T23:04:04.369Z,9.10
2022-10-25T23:07:06.077Z,9.23
2022-10-25T23:10:07.750Z,8.60
2022-10-25T23:13:09.349Z,9.20
2022-10-25T23:16:11.655Z,8.53
2022-10-25T23:19:13.255Z,8.37
2022-10-25T23:22:14.826Z,8.30
2022-10-25T23:25:16.506Z,9.80
2022-10-25T23:28:18.083Z,8.93
2022-10-25T23:31:19.698Z,9.50
2022-10-25T23:34:21.370Z,8.73
2022-10-25T23:37:22.921Z,8.67
2022-10-25T23:40:24.763Z,8.83
2022-10-25T23:43:26.450Z,9.00
2022-10-25T23:46:28.016Z,8.93
2022-10-25T23:49:29.673Z,8.87
2022-10-25T23:52:31.238Z,8.90
2022-10-25T23:55:32.861Z,9.93
2022-10-25T23:58:34.552Z,9.33
